sensor_id;sensor_type;location;lat;lon;timestamp;P1;durP1;ratioP1;P2;durP2;ratioP2
22131;SDS011;11232;51.748;19.390;2022-12-08T00:02:23;8.70;;;2.40;;
22131;SDS011;11232;51.748;19.390;2022-12-08T00:04:48;4.97;;;2.10;;
22131;SDS011;11232;51.748;19.390;2022-12-08T00:07:33;4.03;;;2.30;;
22131;SDS011;11232;51.748;19.390;2022-12-08T00:10:17;5.23;;;2.50;;
22131;SDS011;11232;51.748;19.390;2022-12-08T00:12:42;4.20;;;2.20;;
22131;SDS011;11232;51.748;19.390;2022-12-08T00:15:08;4.77;;;2.30;;
22131;SDS011;11232;51.748;19.390;2022-12-08T00:17:33;3.30;;;1.83;;
22131;SDS011;11232;51.748;19.390;2022-12-08T00:19:59;4.80;;;2.40;;
22131;SDS011;11232;51.748;19.390;2022-12-08T00:22:24;6.63;;;2.83;;
22131;SDS011;11232;51.748;19.390;2022-12-08T00:24:50;6.73;;;2.60;;
22131;SDS011;11232;51.748;19.390;2022-12-08T00:27:15;6.83;;;2.90;;
22131;SDS011;11232;51.748;19.390;2022-12-08T00:29:42;6.43;;;2.83;;
22131;SDS011;11232;51.748;19.390;2022-12-08T00:32:08;9.10;;;3.10;;
22131;SDS011;11232;51.748;19.390;2022-12-08T00:34:34;4.90;;;3.10;;
22131;SDS011;11232;51.748;19.390;2022-12-08T00:37:00;7.50;;;3.83;;
22131;SDS011;11232;51.748;19.390;2022-12-08T00:39:25;7.03;;;3.80;;
22131;SDS011;11232;51.748;19.390;2022-12-08T00:41:51;9.87;;;4.70;;
22131;SDS011;11232;51.748;19.390;2022-12-08T00:44:35;9.33;;;4.63;;
22131;SDS011;11232;51.748;19.390;2022-12-08T00:47:00;8.73;;;4.50;;
22131;SDS011;11232;51.748;19.390;2022-12-08T00:49:26;6.93;;;4.67;;
22131;SDS011;11232;51.748;19.390;2022-12-08T00:51:51;7.70;;;4.70;;
22131;SDS011;11232;51.748;19.390;2022-12-08T00:54:17;10.40;;;5.57;;
22131;SDS011;11232;51.748;19.390;2022-12-08T00:56:43;11.87;;;5.30;;
22131;SDS011;11232;51.748;19.390;2022-12-08T00:59:09;9.77;;;5.70;;
22131;SDS011;11232;51.748;19.390;2022-12-08T01:01:34;13.03;;;6.20;;
22131;SDS011;11232;51.748;19.390;2022-12-08T01:04:04;14.50;;;6.13;;
22131;SDS011;11232;51.748;19.390;2022-12-08T01:06:30;13.73;;;5.97;;
22131;SDS011;11232;51.748;19.390;2022-12-08T01:08:56;14.53;;;7.13;;
22131;SDS011;11232;51.748;19.390;2022-12-08T01:11:22;13.90;;;7.20;;
22131;SDS011;11232;51.748;19.390;2022-12-08T01:13:47;19.57;;;7.60;;
22131;SDS011;11232;51.748;19.390;2022-12-08T01:16:23;15.97;;;7.63;;
22131;SDS011;11232;51.748;19.390;2022-12-08T01:18:50;19.70;;;9.57;;
22131;SDS011;11232;51.748;19.390;2022-12-08T01:21:16;20.20;;;9.67;;
22131;SDS011;11232;51.748;19.390;2022-12-08T01:23:42;20.40;;;9.70;;
22131;SDS011;11232;51.748;19.390;2022-12-08T01:26:08;24.33;;;10.00;;
22131;SDS011;11232;51.748;19.390;2022-12-08T01:28:36;24.47;;;10.07;;
22131;SDS011;11232;51.748;19.390;2022-12-08T01:31:02;21.80;;;11.03;;
22131;SDS011;11232;51.748;19.390;2022-12-08T01:33:28;22.20;;;10.80;;
22131;SDS011;11232;51.748;19.390;2022-12-08T01:35:54;27.00;;;12.00;;
22131;SDS011;11232;51.748;19.390;2022-12-08T01:38:20;19.03;;;9.93;;
22131;SDS011;11232;51.748;19.390;2022-12-08T01:40:46;27.90;;;13.10;;
22131;SDS011;11232;51.748;19.390;2022-12-08T01:43:16;28.47;;;12.40;;
22131;SDS011;11232;51.748;19.390;2022-12-08T01:45:44;28.23;;;11.80;;
22131;SDS011;11232;51.748;19.390;2022-12-08T01:48:10;27.90;;;12.50;;
22131;SDS011;11232;51.748;19.390;2022-12-08T01:50:43;30.80;;;12.00;;
22131;SDS011;11232;51.748;19.390;2022-12-08T01:53:14;32.93;;;12.77;;
22131;SDS011;11232;51.748;19.390;2022-12-08T01:55:46;29.83;;;12.43;;
22131;SDS011;11232;51.748;19.390;2022-12-08T01:58:38;31.33;;;11.57;;
22131;SDS011;11232;51.748;19.390;2022-12-08T02:01:07;32.53;;;12.43;;
22131;SDS011;11232;51.748;19.390;2022-12-08T02:03:42;29.00;;;11.93;;
22131;SDS011;11232;51.748;19.390;2022-12-08T02:06:13;27.63;;;12.23;;
22131;SDS011;11232;51.748;19.390;2022-12-08T02:08:41;27.17;;;11.70;;
22131;SDS011;11232;51.748;19.390;2022-12-08T02:11:08;23.37;;;10.53;;
22131;SDS011;11232;51.748;19.390;2022-12-08T02:13:35;27.83;;;11.33;;
22131;SDS011;11232;51.748;19.390;2022-12-08T02:16:06;29.13;;;11.83;;
22131;SDS011;11232;51.748;19.390;2022-12-08T02:27:10;25.50;;;10.27;;
22131;SDS011;11232;51.748;19.390;2022-12-08T02:40:35;26.07;;;9.83;;
22131;SDS011;11232;51.748;19.390;2022-12-08T02:45:30;23.97;;;10.97;;
22131;SDS011;11232;51.748;19.390;2022-12-08T02:48:01;23.80;;;10.03;;
22131;SDS011;11232;51.748;19.390;2022-12-08T02:50:27;21.03;;;9.30;;
22131;SDS011;11232;51.748;19.390;2022-12-08T02:52:53;19.93;;;10.40;;
22131;SDS011;11232;51.748;19.390;2022-12-08T02:55:25;16.70;;;9.00;;
22131;SDS011;11232;51.748;19.390;2022-12-08T03:04:56;20.70;;;9.40;;
22131;SDS011;11232;51.748;19.390;2022-12-08T03:12:14;24.67;;;8.90;;
22131;SDS011;11232;51.748;19.390;2022-12-08T03:14:45;21.83;;;9.53;;
22131;SDS011;11232;51.748;19.390;2022-12-08T03:17:14;22.83;;;8.77;;
22131;SDS011;11232;51.748;19.390;2022-12-08T03:19:43;20.00;;;8.67;;
22131;SDS011;11232;51.748;19.390;2022-12-08T03:22:11;19.23;;;8.43;;
22131;SDS011;11232;51.748;19.390;2022-12-08T03:24:40;20.50;;;9.30;;
22131;SDS011;11232;51.748;19.390;2022-12-08T03:27:10;24.23;;;9.57;;
22131;SDS011;11232;51.748;19.390;2022-12-08T03:29:36;21.70;;;9.03;;
22131;SDS011;11232;51.748;19.390;2022-12-08T03:32:05;26.70;;;9.20;;
22131;SDS011;11232;51.748;19.390;2022-12-08T03:34:39;21.40;;;9.43;;
22131;SDS011;11232;51.748;19.390;2022-12-08T03:37:08;19.90;;;9.40;;
22131;SDS011;11232;51.748;19.390;2022-12-08T03:39:33;20.07;;;8.40;;
22131;SDS011;11232;51.748;19.390;2022-12-08T03:41:59;24.20;;;9.30;;
22131;SDS011;11232;51.748;19.390;2022-12-08T03:44:24;28.53;;;10.07;;
22131;SDS011;11232;51.748;19.390;2022-12-08T03:46:50;19.47;;;9.90;;
22131;SDS011;11232;51.748;19.390;2022-12-08T03:49:15;18.53;;;8.67;;
22131;SDS011;11232;51.748;19.390;2022-12-08T03:51:41;21.13;;;9.27;;
22131;SDS011;11232;51.748;19.390;2022-12-08T03:54:07;22.90;;;9.43;;
22131;SDS011;11232;51.748;19.390;2022-12-08T03:56:36;20.00;;;9.23;;
22131;SDS011;11232;51.748;19.390;2022-12-08T03:59:03;26.83;;;10.07;;
22131;SDS011;11232;51.748;19.390;2022-12-08T04:01:30;22.87;;;10.37;;
22131;SDS011;11232;51.748;19.390;2022-12-08T04:03:55;20.43;;;9.77;;
22131;SDS011;11232;51.748;19.390;2022-12-08T04:06:21;22.77;;;10.10;;
22131;SDS011;11232;51.748;19.390;2022-12-08T04:08:47;23.67;;;9.70;;
22131;SDS011;11232;51.748;19.390;2022-12-08T04:11:14;27.67;;;10.53;;
22131;SDS011;11232;51.748;19.390;2022-12-08T04:13:41;22.63;;;10.20;;
22131;SDS011;11232;51.748;19.390;2022-12-08T04:16:08;23.70;;;10.07;;
22131;SDS011;11232;51.748;19.390;2022-12-08T04:18:39;25.17;;;9.83;;
22131;SDS011;11232;51.748;19.390;2022-12-08T04:21:05;22.43;;;9.47;;
22131;SDS011;11232;51.748;19.390;2022-12-08T04:23:30;23.50;;;10.63;;
22131;SDS011;11232;51.748;19.390;2022-12-08T04:25:56;22.93;;;10.17;;
22131;SDS011;11232;51.748;19.390;2022-12-08T04:28:21;22.83;;;10.50;;
22131;SDS011;11232;51.748;19.390;2022-12-08T04:30:48;23.43;;;9.70;;
22131;SDS011;11232;51.748;19.390;2022-12-08T04:33:13;22.37;;;9.83;;
22131;SDS011;11232;51.748;19.390;2022-12-08T04:35:39;23.33;;;9.83;;
22131;SDS011;11232;51.748;19.390;2022-12-08T04:38:05;22.17;;;10.03;;
22131;SDS011;11232;51.748;19.390;2022-12-08T04:40:30;25.17;;;9.63;;
22131;SDS011;11232;51.748;19.390;2022-12-08T04:42:57;23.23;;;8.73;;
22131;SDS011;11232;51.748;19.390;2022-12-08T04:45:23;19.77;;;9.90;;
22131;SDS011;11232;51.748;19.390;2022-12-08T04:47:48;20.67;;;8.40;;
22131;SDS011;11232;51.748;19.390;2022-12-08T04:50:14;22.63;;;9.27;;
22131;SDS011;11232;51.748;19.390;2022-12-08T04:52:39;21.97;;;8.87;;
22131;SDS011;11232;51.748;19.390;2022-12-08T04:55:05;18.30;;;9.17;;
22131;SDS011;11232;51.748;19.390;2022-12-08T04:57:31;23.43;;;9.40;;
22131;SDS011;11232;51.748;19.390;2022-12-08T04:59:56;18.37;;;8.77;;
22131;SDS011;11232;51.748;19.390;2022-12-08T05:02:22;21.90;;;8.73;;
22131;SDS011;11232;51.748;19.390;2022-12-08T05:04:47;26.10;;;9.57;;
22131;SDS011;11232;51.748;19.390;2022-12-08T05:07:13;24.53;;;9.60;;
22131;SDS011;11232;51.748;19.390;2022-12-08T05:09:39;17.60;;;8.63;;
22131;SDS011;11232;51.748;19.390;2022-12-08T05:12:04;22.40;;;10.37;;
22131;SDS011;11232;51.748;19.390;2022-12-08T05:14:30;21.83;;;9.13;;
22131;SDS011;11232;51.748;19.390;2022-12-08T05:16:55;25.93;;;9.97;;
22131;SDS011;11232;51.748;19.390;2022-12-08T05:19:21;20.73;;;9.10;;
22131;SDS011;11232;51.748;19.390;2022-12-08T05:21:47;19.97;;;9.00;;
22131;SDS011;11232;51.748;19.390;2022-12-08T05:24:12;26.37;;;10.37;;
22131;SDS011;11232;51.748;19.390;2022-12-08T05:26:38;20.97;;;9.77;;
22131;SDS011;11232;51.748;19.390;2022-12-08T05:29:03;23.80;;;9.13;;
22131;SDS011;11232;51.748;19.390;2022-12-08T05:31:29;20.83;;;9.97;;
22131;SDS011;11232;51.748;19.390;2022-12-08T05:33:55;21.47;;;8.70;;
22131;SDS011;11232;51.748;19.390;2022-12-08T05:36:20;18.07;;;8.90;;
22131;SDS011;11232;51.748;19.390;2022-12-08T05:38:46;19.07;;;9.23;;
22131;SDS011;11232;51.748;19.390;2022-12-08T05:41:16;19.13;;;9.37;;
22131;SDS011;11232;51.748;19.390;2022-12-08T05:43:43;21.30;;;9.10;;
22131;SDS011;11232;51.748;19.390;2022-12-08T05:46:09;22.40;;;8.83;;
22131;SDS011;11232;51.748;19.390;2022-12-08T05:48:35;21.70;;;9.23;;
22131;SDS011;11232;51.748;19.390;2022-12-08T05:51:01;18.30;;;8.90;;
22131;SDS011;11232;51.748;19.390;2022-12-08T05:53:26;19.97;;;10.03;;
22131;SDS011;11232;51.748;19.390;2022-12-08T05:55:52;23.97;;;9.80;;
22131;SDS011;11232;51.748;19.390;2022-12-08T05:58:19;18.80;;;9.73;;
22131;SDS011;11232;51.748;19.390;2022-12-08T06:00:45;20.77;;;9.43;;
22131;SDS011;11232;51.748;19.390;2022-12-08T06:03:12;20.10;;;9.60;;
22131;SDS011;11232;51.748;19.390;2022-12-08T06:05:39;24.80;;;9.57;;
22131;SDS011;11232;51.748;19.390;2022-12-08T06:08:05;23.50;;;10.23;;
22131;SDS011;11232;51.748;19.390;2022-12-08T06:10:30;23.53;;;9.63;;
22131;SDS011;11232;51.748;19.390;2022-12-08T06:12:56;24.87;;;10.03;;
22131;SDS011;11232;51.748;19.390;2022-12-08T06:15:22;22.90;;;10.40;;
22131;SDS011;11232;51.748;19.390;2022-12-08T06:17:47;22.97;;;10.73;;
22131;SDS011;11232;51.748;19.390;2022-12-08T06:20:13;20.87;;;10.33;;
22131;SDS011;11232;51.748;19.390;2022-12-08T06:22:39;25.90;;;10.83;;
22131;SDS011;11232;51.748;19.390;2022-12-08T06:25:04;21.67;;;9.97;;
22131;SDS011;11232;51.748;19.390;2022-12-08T06:27:31;18.77;;;10.23;;
22131;SDS011;11232;51.748;19.390;2022-12-08T06:29:57;21.23;;;9.73;;
22131;SDS011;11232;51.748;19.390;2022-12-08T06:32:23;29.37;;;12.77;;
22131;SDS011;11232;51.748;19.390;2022-12-08T06:34:49;26.27;;;12.03;;
22131;SDS011;11232;51.748;19.390;2022-12-08T06:37:14;24.60;;;11.90;;
22131;SDS011;11232;51.748;19.390;2022-12-08T06:39:40;24.43;;;10.93;;
22131;SDS011;11232;51.748;19.390;2022-12-08T06:42:05;31.33;;;12.73;;
22131;SDS011;11232;51.748;19.390;2022-12-08T06:44:49;29.73;;;13.07;;
22131;SDS011;11232;51.748;19.390;2022-12-08T06:47:15;30.67;;;14.53;;
22131;SDS011;11232;51.748;19.390;2022-12-08T06:49:41;26.97;;;13.07;;
22131;SDS011;11232;51.748;19.390;2022-12-08T06:52:07;26.37;;;13.13;;
22131;SDS011;11232;51.748;19.390;2022-12-08T06:54:32;29.93;;;14.67;;
22131;SDS011;11232;51.748;19.390;2022-12-08T06:56:58;32.30;;;14.90;;
22131;SDS011;11232;51.748;19.390;2022-12-08T06:59:23;34.57;;;15.07;;
22131;SDS011;11232;51.748;19.390;2022-12-08T07:01:52;28.17;;;12.97;;
22131;SDS011;11232;51.748;19.390;2022-12-08T07:04:17;28.93;;;14.57;;
22131;SDS011;11232;51.748;19.390;2022-12-08T07:06:43;31.00;;;15.23;;
22131;SDS011;11232;51.748;19.390;2022-12-08T07:09:08;35.00;;;14.80;;
22131;SDS011;11232;51.748;19.390;2022-12-08T07:11:34;31.90;;;15.07;;
22131;SDS011;11232;51.748;19.390;2022-12-08T07:14:01;36.50;;;16.60;;
22131;SDS011;11232;51.748;19.390;2022-12-08T07:16:27;40.13;;;17.67;;
22131;SDS011;11232;51.748;19.390;2022-12-08T07:18:52;35.20;;;19.90;;
22131;SDS011;11232;51.748;19.390;2022-12-08T07:21:18;41.17;;;21.17;;
22131;SDS011;11232;51.748;19.390;2022-12-08T07:23:44;48.67;;;21.63;;
22131;SDS011;11232;51.748;19.390;2022-12-08T07:26:11;41.80;;;20.70;;
22131;SDS011;11232;51.748;19.390;2022-12-08T07:28:38;40.40;;;19.73;;
22131;SDS011;11232;51.748;19.390;2022-12-08T07:31:05;42.70;;;19.80;;
22131;SDS011;11232;51.748;19.390;2022-12-08T07:33:33;34.73;;;18.00;;
22131;SDS011;11232;51.748;19.390;2022-12-08T07:36:00;37.00;;;16.93;;
22131;SDS011;11232;51.748;19.390;2022-12-08T07:38:28;31.07;;;15.47;;
22131;SDS011;11232;51.748;19.390;2022-12-08T07:40:54;33.50;;;16.33;;
22131;SDS011;11232;51.748;19.390;2022-12-08T07:43:20;35.57;;;15.50;;
22131;SDS011;11232;51.748;19.390;2022-12-08T07:45:46;29.53;;;14.40;;
22131;SDS011;11232;51.748;19.390;2022-12-08T07:48:13;31.07;;;15.83;;
22131;SDS011;11232;51.748;19.390;2022-12-08T07:50:38;36.70;;;16.33;;
22131;SDS011;11232;51.748;19.390;2022-12-08T07:53:04;32.30;;;15.23;;
22131;SDS011;11232;51.748;19.390;2022-12-08T07:55:30;30.83;;;14.40;;
22131;SDS011;11232;51.748;19.390;2022-12-08T07:57:56;30.07;;;15.03;;
22131;SDS011;11232;51.748;19.390;2022-12-08T08:00:22;34.13;;;15.13;;
22131;SDS011;11232;51.748;19.390;2022-12-08T08:02:47;30.80;;;14.87;;
22131;SDS011;11232;51.748;19.390;2022-12-08T08:05:13;35.63;;;16.23;;
22131;SDS011;11232;51.748;19.390;2022-12-08T08:07:39;34.67;;;16.77;;
22131;SDS011;11232;51.748;19.390;2022-12-08T08:10:11;31.47;;;16.30;;
22131;SDS011;11232;51.748;19.390;2022-12-08T08:12:37;33.20;;;15.60;;
22131;SDS011;11232;51.748;19.390;2022-12-08T08:15:04;30.07;;;14.83;;
22131;SDS011;11232;51.748;19.390;2022-12-08T08:17:31;27.60;;;14.37;;
22131;SDS011;11232;51.748;19.390;2022-12-08T08:19:57;38.70;;;16.93;;
22131;SDS011;11232;51.748;19.390;2022-12-08T08:22:23;41.33;;;19.20;;
22131;SDS011;11232;51.748;19.390;2022-12-08T08:24:49;41.80;;;19.77;;
22131;SDS011;11232;51.748;19.390;2022-12-08T08:27:15;42.80;;;19.77;;
22131;SDS011;11232;51.748;19.390;2022-12-08T08:29:40;40.70;;;19.43;;
22131;SDS011;11232;51.748;19.390;2022-12-08T08:32:06;44.33;;;20.97;;
22131;SDS011;11232;51.748;19.390;2022-12-08T08:34:32;41.87;;;20.60;;
22131;SDS011;11232;51.748;19.390;2022-12-08T08:36:57;53.07;;;23.27;;
22131;SDS011;11232;51.748;19.390;2022-12-08T08:39:23;43.73;;;21.83;;
22131;SDS011;11232;51.748;19.390;2022-12-08T08:41:48;39.70;;;21.23;;
22131;SDS011;11232;51.748;19.390;2022-12-08T08:44:14;34.17;;;19.47;;
22131;SDS011;11232;51.748;19.390;2022-12-08T08:46:40;32.27;;;18.17;;
22131;SDS011;11232;51.748;19.390;2022-12-08T08:49:05;37.23;;;16.93;;
22131;SDS011;11232;51.748;19.390;2022-12-08T08:51:31;31.60;;;15.70;;
22131;SDS011;11232;51.748;19.390;2022-12-08T08:53:57;27.10;;;15.17;;
22131;SDS011;11232;51.748;19.390;2022-12-08T08:56:23;25.27;;;14.40;;
22131;SDS011;11232;51.748;19.390;2022-12-08T08:58:49;30.13;;;15.23;;
22131;SDS011;11232;51.748;19.390;2022-12-08T09:01:16;29.73;;;14.80;;
22131;SDS011;11232;51.748;19.390;2022-12-08T09:03:44;24.80;;;14.17;;
22131;SDS011;11232;51.748;19.390;2022-12-08T09:06:10;23.03;;;13.40;;
22131;SDS011;11232;51.748;19.390;2022-12-08T09:08:35;19.97;;;13.60;;
22131;SDS011;11232;51.748;19.390;2022-12-08T09:11:01;20.80;;;13.20;;
22131;SDS011;11232;51.748;19.390;2022-12-08T09:13:27;18.93;;;13.03;;
22131;SDS011;11232;51.748;19.390;2022-12-08T09:15:52;21.43;;;13.40;;
22131;SDS011;11232;51.748;19.390;2022-12-08T09:18:18;20.57;;;13.27;;
22131;SDS011;11232;51.748;19.390;2022-12-08T09:20:43;21.00;;;12.57;;
22131;SDS011;11232;51.748;19.390;2022-12-08T09:23:09;20.10;;;12.47;;
22131;SDS011;11232;51.748;19.390;2022-12-08T09:25:34;19.07;;;11.90;;
22131;SDS011;11232;51.748;19.390;2022-12-08T09:28:00;21.30;;;12.83;;
22131;SDS011;11232;51.748;19.390;2022-12-08T09:30:26;23.03;;;13.30;;
22131;SDS011;11232;51.748;19.390;2022-12-08T09:32:51;18.83;;;12.83;;
22131;SDS011;11232;51.748;19.390;2022-12-08T09:35:17;20.00;;;12.33;;
22131;SDS011;11232;51.748;19.390;2022-12-08T09:37:42;21.10;;;12.93;;
22131;SDS011;11232;51.748;19.390;2022-12-08T09:40:09;22.83;;;13.67;;
22131;SDS011;11232;51.748;19.390;2022-12-08T09:45:16;22.50;;;12.73;;
22131;SDS011;11232;51.748;19.390;2022-12-08T09:47:45;22.70;;;13.63;;
22131;SDS011;11232;51.748;19.390;2022-12-08T09:53:18;20.40;;;13.43;;
22131;SDS011;11232;51.748;19.390;2022-12-08T09:55:50;21.83;;;13.73;;
22131;SDS011;11232;51.748;19.390;2022-12-08T09:58:52;21.73;;;13.83;;
22131;SDS011;11232;51.748;19.390;2022-12-08T10:01:27;24.63;;;13.70;;
22131;SDS011;11232;51.748;19.390;2022-12-08T10:03:55;23.93;;;13.40;;
22131;SDS011;11232;51.748;19.390;2022-12-08T10:06:26;27.17;;;13.93;;
22131;SDS011;11232;51.748;19.390;2022-12-08T10:12:09;26.47;;;14.87;;
22131;SDS011;11232;51.748;19.390;2022-12-08T10:17:53;31.03;;;15.77;;
22131;SDS011;11232;51.748;19.390;2022-12-08T10:20:22;27.90;;;15.23;;
22131;SDS011;11232;51.748;19.390;2022-12-08T10:22:55;29.40;;;14.57;;
22131;SDS011;11232;51.748;19.390;2022-12-08T10:25:34;32.30;;;15.23;;
22131;SDS011;11232;51.748;19.390;2022-12-08T10:28:03;28.40;;;15.60;;
22131;SDS011;11232;51.748;19.390;2022-12-08T10:30:30;33.30;;;14.93;;
22131;SDS011;11232;51.748;19.390;2022-12-08T10:32:56;27.83;;;15.27;;
22131;SDS011;11232;51.748;19.390;2022-12-08T10:35:21;25.63;;;14.63;;
22131;SDS011;11232;51.748;19.390;2022-12-08T10:37:59;27.70;;;15.23;;
22131;SDS011;11232;51.748;19.390;2022-12-08T10:40:27;24.57;;;14.73;;
22131;SDS011;11232;51.748;19.390;2022-12-08T10:43:02;24.27;;;14.43;;
22131;SDS011;11232;51.748;19.390;2022-12-08T10:45:32;26.93;;;15.60;;
22131;SDS011;11232;51.748;19.390;2022-12-08T10:48:03;27.37;;;15.20;;
22131;SDS011;11232;51.748;19.390;2022-12-08T10:50:41;26.13;;;14.33;;
22131;SDS011;11232;51.748;19.390;2022-12-08T10:55:45;30.40;;;14.87;;
22131;SDS011;11232;51.748;19.390;2022-12-08T11:01:02;33.63;;;15.73;;
22131;SDS011;11232;51.748;19.390;2022-12-08T11:03:50;28.17;;;15.63;;
22131;SDS011;11232;51.748;19.390;2022-12-08T11:06:36;29.40;;;15.77;;
22131;SDS011;11232;51.748;19.390;2022-12-08T11:16:51;31.50;;;15.63;;
22131;SDS011;11232;51.748;19.390;2022-12-08T11:19:20;27.03;;;14.33;;
22131;SDS011;11232;51.748;19.390;2022-12-08T11:21:49;30.47;;;15.30;;
22131;SDS011;11232;51.748;19.390;2022-12-08T11:26:48;25.57;;;14.30;;
22131;SDS011;11232;51.748;19.390;2022-12-08T11:29:22;24.27;;;12.43;;
22131;SDS011;11232;51.748;19.390;2022-12-08T11:31:55;26.30;;;13.07;;
22131;SDS011;11232;51.748;19.390;2022-12-08T11:37:20;22.63;;;12.13;;
22131;SDS011;11232;51.748;19.390;2022-12-08T11:40:09;20.43;;;11.53;;
22131;SDS011;11232;51.748;19.390;2022-12-08T11:45:19;22.87;;;12.60;;
22131;SDS011;11232;51.748;19.390;2022-12-08T11:47:55;23.80;;;12.67;;
22131;SDS011;11232;51.748;19.390;2022-12-08T11:50:28;19.10;;;11.80;;
22131;SDS011;11232;51.748;19.390;2022-12-08T11:53:02;22.43;;;11.93;;
22131;SDS011;11232;51.748;19.390;2022-12-08T11:55:37;25.47;;;11.70;;
22131;SDS011;11232;51.748;19.390;2022-12-08T11:58:27;24.60;;;12.73;;
22131;SDS011;11232;51.748;19.390;2022-12-08T12:01:19;22.43;;;12.43;;
22131;SDS011;11232;51.748;19.390;2022-12-08T12:03:49;22.53;;;12.27;;
22131;SDS011;11232;51.748;19.390;2022-12-08T12:08:57;17.80;;;10.93;;
22131;SDS011;11232;51.748;19.390;2022-12-08T12:17:24;21.47;;;11.93;;
22131;SDS011;11232;51.748;19.390;2022-12-08T12:22:55;21.27;;;11.53;;
22131;SDS011;11232;51.748;19.390;2022-12-08T12:25:25;19.07;;;10.37;;
22131;SDS011;11232;51.748;19.390;2022-12-08T12:27:52;22.03;;;9.67;;
22131;SDS011;11232;51.748;19.390;2022-12-08T12:30:27;18.70;;;9.53;;
22131;SDS011;11232;51.748;19.390;2022-12-08T12:32:59;15.90;;;9.40;;
22131;SDS011;11232;51.748;19.390;2022-12-08T12:35:36;20.27;;;10.50;;
22131;SDS011;11232;51.748;19.390;2022-12-08T12:38:07;17.83;;;9.63;;
22131;SDS011;11232;51.748;19.390;2022-12-08T12:41:06;21.47;;;11.13;;
22131;SDS011;11232;51.748;19.390;2022-12-08T12:43:34;19.30;;;10.40;;
22131;SDS011;11232;51.748;19.390;2022-12-08T12:48:51;19.77;;;10.40;;
22131;SDS011;11232;51.748;19.390;2022-12-08T12:54:23;19.70;;;10.30;;
22131;SDS011;11232;51.748;19.390;2022-12-08T12:56:50;20.07;;;11.00;;
22131;SDS011;11232;51.748;19.390;2022-12-08T13:02:25;22.20;;;11.27;;
22131;SDS011;11232;51.748;19.390;2022-12-08T13:05:01;21.40;;;10.70;;
22131;SDS011;11232;51.748;19.390;2022-12-08T13:07:28;19.67;;;10.60;;
22131;SDS011;11232;51.748;19.390;2022-12-08T13:10:19;24.40;;;11.13;;
22131;SDS011;11232;51.748;19.390;2022-12-08T13:12:46;20.33;;;11.13;;
22131;SDS011;11232;51.748;19.390;2022-12-08T13:15:38;21.50;;;10.93;;
22131;SDS011;11232;51.748;19.390;2022-12-08T13:18:28;22.10;;;10.83;;
22131;SDS011;11232;51.748;19.390;2022-12-08T13:21:04;17.60;;;9.93;;
22131;SDS011;11232;51.748;19.390;2022-12-08T13:26:11;20.33;;;10.90;;
22131;SDS011;11232;51.748;19.390;2022-12-08T13:31:40;17.63;;;10.90;;
22131;SDS011;11232;51.748;19.390;2022-12-08T13:34:06;19.40;;;10.50;;
22131;SDS011;11232;51.748;19.390;2022-12-08T13:36:38;20.67;;;11.03;;
22131;SDS011;11232;51.748;19.390;2022-12-08T13:39:09;20.63;;;10.83;;
22131;SDS011;11232;51.748;19.390;2022-12-08T13:41:52;20.03;;;11.33;;
22131;SDS011;11232;51.748;19.390;2022-12-08T13:44:28;22.77;;;11.30;;
22131;SDS011;11232;51.748;19.390;2022-12-08T13:47:01;25.13;;;12.50;;
22131;SDS011;11232;51.748;19.390;2022-12-08T13:49:34;26.03;;;12.40;;
22131;SDS011;11232;51.748;19.390;2022-12-08T13:52:04;24.03;;;12.67;;
22131;SDS011;11232;51.748;19.390;2022-12-08T13:54:41;26.87;;;11.97;;
22131;SDS011;11232;51.748;19.390;2022-12-08T13:57:12;25.47;;;13.07;;
22131;SDS011;11232;51.748;19.390;2022-12-08T13:59:48;24.90;;;12.67;;
22131;SDS011;11232;51.748;19.390;2022-12-08T14:02:15;24.60;;;12.83;;
22131;SDS011;11232;51.748;19.390;2022-12-08T14:05:01;26.20;;;13.30;;
22131;SDS011;11232;51.748;19.390;2022-12-08T14:07:27;27.47;;;13.40;;
22131;SDS011;11232;51.748;19.390;2022-12-08T14:09:53;26.37;;;13.73;;
22131;SDS011;11232;51.748;19.390;2022-12-08T14:12:19;28.53;;;14.33;;
22131;SDS011;11232;51.748;19.390;2022-12-08T14:14:58;30.27;;;14.87;;
22131;SDS011;11232;51.748;19.390;2022-12-08T14:17:26;30.07;;;14.80;;
22131;SDS011;11232;51.748;19.390;2022-12-08T14:19:59;29.77;;;14.77;;
22131;SDS011;11232;51.748;19.390;2022-12-08T14:22:37;27.67;;;14.93;;
22131;SDS011;11232;51.748;19.390;2022-12-08T14:25:05;27.83;;;14.93;;
22131;SDS011;11232;51.748;19.390;2022-12-08T14:27:35;30.03;;;14.83;;
22131;SDS011;11232;51.748;19.390;2022-12-08T14:37:32;29.63;;;15.67;;
22131;SDS011;11232;51.748;19.390;2022-12-08T14:40:04;31.60;;;15.03;;
22131;SDS011;11232;51.748;19.390;2022-12-08T14:42:30;29.67;;;14.77;;
22131;SDS011;11232;51.748;19.390;2022-12-08T14:45:11;33.47;;;15.77;;
22131;SDS011;11232;51.748;19.390;2022-12-08T14:47:38;27.93;;;14.43;;
22131;SDS011;11232;51.748;19.390;2022-12-08T14:50:32;27.60;;;15.07;;
22131;SDS011;11232;51.748;19.390;2022-12-08T14:53:04;30.40;;;15.90;;
22131;SDS011;11232;51.748;19.390;2022-12-08T14:55:38;29.00;;;15.30;;
22131;SDS011;11232;51.748;19.390;2022-12-08T14:58:03;29.63;;;14.10;;
22131;SDS011;11232;51.748;19.390;2022-12-08T15:00:29;30.93;;;15.07;;
22131;SDS011;11232;51.748;19.390;2022-12-08T15:02:55;31.40;;;14.53;;
22131;SDS011;11232;51.748;19.390;2022-12-08T15:05:24;32.87;;;15.43;;
22131;SDS011;11232;51.748;19.390;2022-12-08T15:07:53;30.40;;;14.87;;
22131;SDS011;11232;51.748;19.390;2022-12-08T15:10:28;27.80;;;15.53;;
22131;SDS011;11232;51.748;19.390;2022-12-08T15:12:57;33.87;;;16.83;;
22131;SDS011;11232;51.748;19.390;2022-12-08T15:15:23;34.73;;;17.37;;
22131;SDS011;11232;51.748;19.390;2022-12-08T15:17:49;35.73;;;17.53;;
22131;SDS011;11232;51.748;19.390;2022-12-08T15:25:48;40.90;;;17.17;;
22131;SDS011;11232;51.748;19.390;2022-12-08T15:28:16;35.33;;;15.87;;
22131;SDS011;11232;51.748;19.390;2022-12-08T15:30:43;31.73;;;16.00;;
22131;SDS011;11232;51.748;19.390;2022-12-08T15:33:09;36.50;;;16.23;;
22131;SDS011;11232;51.748;19.390;2022-12-08T15:35:34;40.10;;;15.80;;
22131;SDS011;11232;51.748;19.390;2022-12-08T15:38:00;35.57;;;17.17;;
22131;SDS011;11232;51.748;19.390;2022-12-08T15:40:25;31.83;;;16.67;;
22131;SDS011;11232;51.748;19.390;2022-12-08T15:42:51;33.83;;;16.57;;
22131;SDS011;11232;51.748;19.390;2022-12-08T15:45:17;38.57;;;16.63;;
22131;SDS011;11232;51.748;19.390;2022-12-08T15:47:46;35.03;;;17.37;;
22131;SDS011;11232;51.748;19.390;2022-12-08T15:50:15;34.97;;;16.17;;
22131;SDS011;11232;51.748;19.390;2022-12-08T15:52:43;38.70;;;17.40;;
22131;SDS011;11232;51.748;19.390;2022-12-08T15:55:12;38.83;;;18.00;;
22131;SDS011;11232;51.748;19.390;2022-12-08T15:57:38;36.13;;;17.40;;
22131;SDS011;11232;51.748;19.390;2022-12-08T16:00:09;36.13;;;18.73;;
22131;SDS011;11232;51.748;19.390;2022-12-08T16:02:50;37.07;;;17.63;;
22131;SDS011;11232;51.748;19.390;2022-12-08T16:05:16;37.77;;;18.40;;
22131;SDS011;11232;51.748;19.390;2022-12-08T16:07:42;37.03;;;18.90;;
22131;SDS011;11232;51.748;19.390;2022-12-08T16:10:15;38.47;;;18.27;;